Alanson, MI

12:22 PM EDT on August 29, 2015 (GMT -0400)
Markspm | | Change Station
CLOSE
Current Station
Personal Weather Station
Location: Harbor Springs, MI
Elevation: 745 ft
Nearby Weather Stations

Elev 745 ft 45.43 °N, 84.91 °W | Updated 14 minutes ago

Overcast
Overcast
64.0 °F
Feels Like 64.0 °F
N
0.0
Wind Variable Wind from NE
Gusts 0.0 mph

Today
High -- | Low -- °F
--% Chance of Precip.
Yesterday
High -- | Low -- °F
Precip. -- in
6:56 AM 8:22 PM
Full, 100% visible
Pressure 30.11 in
Visibility 10.0 miles
Clouds Mostly Cloudy 1100 ft
Overcast 5500 ft
Dew Point 63 °F
Humidity 96%
Rainfall 0.18 in
Snow Depth Not available.
UV 2 out of 12
Pollen 8.70 out of 12
Air Quality Not available.
Flu Activity Not available.
METAR KMGN 291614Z AUTO 20005KT 10SM BKN011 OVC055 18/16 A3011 RMK AO2 T01850161
Pressure 30.11 in
Visibility 10.0 miles
Clouds Mostly Cloudy 1100 ft
Overcast 5500 ft
Dew Point 63 °F
Humidity 96%
Rainfall 0.18 in
Snow Depth Not available.
UV 2 out of 12
Pollen 8.70 out of 12
Air Quality Not available.
Flu Activity Not available.
METAR KMGN 291614Z AUTO 20005KT 10SM BKN011 OVC055 18/16 A3011 RMK AO2 T01850161
Nowcast | as of 12:00 PM EDT on August 29, 2015

At 1 PM...cloudy. Scattered showers. Temperature 67. West winds 7 mph. At 3 PM...mostly cloudy. Scattered showers. Temperature 69. West winds 7 mph. At 5 PM...mostly cloudy. Scattered showers. Temperature 69. West winds 7 mph. At 7 PM...mostly cloudy. Scattered showers. Temperature 67. West winds 6 mph.

×

10-Day Weather Forecast

×

Almanac

Astronomy

Aug. 29, 2015 Rise Set
Actual Time
Civil Twilight
Nautical Twilight
Astronomical Twilight
Moon
Length of Visible Light
Length of Day
Tomorrow will be .
, % of the Moon is Illuminated

Today's Extremes

State Highs State Lows

Community

WunderPhotos

Upload Photos

1,850,719 photos uploaded!

WunderBlogs® & News

Nearby

Air Quality

  Air Quality AQ Index Pollutant
Not available.

Snow Depth

Station Depth Elevation

Earthquake Activity

City Distance Mag. Time & Date
Minimum magnitude displayed is 2.5.

Coastal Water Temperatures

Place Temperature

Stations

Nearby Weather Stations

Station Location Temp. Windchill Dew Point Humidity Wind Precip. Elev Updated Type